createdAt,value
2022-11-29T00:01:20.401Z,17.75
2022-11-29T00:03:48.125Z,17.33
2022-11-29T00:06:20.346Z,18.20
2022-11-29T00:08:47.628Z,17.23
2022-11-29T00:11:54.462Z,18.08
2022-11-29T00:14:21.776Z,17.85
2022-11-29T00:16:53.343Z,17.23
2022-11-29T00:19:20.240Z,17.10
2022-11-29T00:21:46.827Z,16.40
2022-11-29T00:24:13.578Z,16.60
2022-11-29T00:26:40.200Z,16.23
2022-11-29T00:29:06.638Z,15.30
2022-11-29T00:31:33.746Z,16.17
2022-11-29T00:34:02.906Z,16.23
2022-11-29T00:36:30.101Z,15.98
2022-11-29T00:38:56.655Z,16.63
2022-11-29T00:41:23.134Z,16.65
2022-11-29T00:43:49.556Z,16.58
2022-11-29T00:46:16.362Z,15.20
2022-11-29T00:48:42.887Z,16.25
2022-11-29T00:51:12.296Z,15.40
2022-11-29T00:53:44.742Z,14.85
2022-11-29T00:56:12.069Z,15.52
2022-11-29T00:58:39.038Z,15.73
2022-11-29T01:01:05.972Z,15.63
2022-11-29T01:03:32.693Z,15.55
2022-11-29T01:06:08.683Z,16.15
2022-11-29T01:08:35.482Z,14.77
2022-11-29T01:11:11.636Z,15.02
2022-11-29T01:13:38.565Z,14.50
2022-11-29T01:16:07.782Z,14.50
2022-11-29T01:18:34.882Z,14.63
2022-11-29T01:21:11.250Z,14.50
2022-11-29T01:23:38.165Z,13.90
2022-11-29T01:26:25.969Z,14.27
2022-11-29T01:28:54.315Z,13.98
2022-11-29T01:31:24.924Z,14.40
2022-11-29T01:33:55.619Z,13.27
2022-11-29T01:36:22.646Z,14.38
2022-11-29T01:38:49.094Z,13.38
2022-11-29T01:41:21.119Z,13.02
2022-11-29T01:43:58.823Z,13.77
2022-11-29T01:46:26.391Z,13.60
2022-11-29T01:48:57.276Z,13.65
2022-11-29T01:51:25.375Z,12.88
2022-11-29T01:53:51.874Z,13.73
2022-11-29T01:56:18.493Z,12.93
2022-11-29T01:58:45.401Z,13.20
2022-11-29T02:01:12.857Z,13.90
2022-11-29T02:03:39.840Z,13.23
2022-11-29T02:06:07.715Z,14.05
2022-11-29T02:08:40.258Z,13.25
2022-11-29T02:11:35.696Z,13.02
2022-11-29T02:14:02.097Z,12.32
2022-11-29T02:16:56.923Z,13.07
2022-11-29T02:19:51.409Z,12.35
2022-11-29T02:22:20.833Z,12.90
2022-11-29T02:25:05.926Z,11.70
2022-11-29T02:27:47.331Z,12.18
2022-11-29T02:30:32.684Z,13.07
2022-11-29T02:33:26.791Z,12.10
2022-11-29T02:36:15.105Z,12.10
2022-11-29T02:39:00.191Z,12.60
2022-11-29T02:42:04.551Z,11.68
2022-11-29T02:44:40.002Z,12.18
2022-11-29T02:47:24.785Z,12.45
2022-11-29T02:49:54.025Z,11.88
2022-11-29T02:52:41.606Z,10.90
2022-11-29T02:55:29.509Z,11.80
2022-11-29T02:58:02.761Z,11.93
2022-11-29T03:00:29.674Z,11.65
2022-11-29T03:03:11.887Z,12.52
2022-11-29T03:06:15.943Z,11.15
2022-11-29T03:08:48.380Z,11.75
2022-11-29T03:11:47.309Z,12.13
2022-11-29T03:14:24.757Z,11.43
2022-11-29T03:16:57.214Z,11.40
2022-11-29T03:19:54.193Z,10.77
2022-11-29T03:22:39.070Z,11.52
2022-11-29T03:25:24.258Z,10.85
2022-11-29T03:27:57.894Z,10.65
2022-11-29T03:30:24.649Z,10.85
2022-11-29T03:33:14.575Z,11.38
2022-11-29T03:35:48.129Z,10.95
2022-11-29T03:38:44.219Z,10.98
2022-11-29T03:41:25.834Z,11.38
2022-11-29T03:44:00.546Z,10.88
2022-11-29T03:46:42.497Z,11.40
2022-11-29T03:49:41.464Z,11.18
2022-11-29T03:52:27.496Z,10.38
2022-11-29T03:55:09.004Z,11.68
2022-11-29T03:58:00.131Z,10.85
2022-11-29T04:00:41.111Z,11.10
2022-11-29T04:03:29.723Z,10.20
2022-11-29T04:06:14.840Z,10.52
2022-11-29T04:09:12.408Z,10.65
2022-11-29T04:11:58.851Z,10.68
2022-11-29T04:14:33.837Z,10.68
2022-11-29T04:17:37.951Z,10.35
2022-11-29T04:20:26.434Z,11.15
2022-11-29T04:23:19.021Z,10.10
2022-11-29T04:26:21.386Z,9.98
2022-11-29T04:29:06.379Z,11.00
2022-11-29T04:31:32.945Z,9.57
2022-11-29T04:34:18.592Z,10.45
2022-11-29T04:36:56.991Z,10.55
2022-11-29T04:39:32.088Z,10.02
2022-11-29T04:42:24.416Z,10.48
2022-11-29T04:44:53.984Z,10.32
2022-11-29T04:47:48.595Z,10.40
2022-11-29T04:50:57.564Z,10.23
2022-11-29T04:53:47.843Z,9.85
2022-11-29T04:56:23.114Z,9.95
2022-11-29T04:58:55.273Z,10.65
2022-11-29T05:01:33.508Z,9.57
2022-11-29T05:04:20.136Z,10.30
2022-11-29T05:06:55.694Z,10.38
2022-11-29T05:09:31.905Z,9.95
2022-11-29T05:12:35.899Z,9.82
2022-11-29T05:15:45.073Z,10.48
2022-11-29T05:18:11.509Z,9.88
2022-11-29T05:21:08.821Z,10.32
2022-11-29T05:23:51.085Z,9.80
2022-11-29T05:26:36.929Z,9.35
2022-11-29T05:29:08.620Z,9.52
2022-11-29T05:31:56.812Z,10.23
2022-11-29T05:34:46.777Z,10.23
2022-11-29T05:37:42.693Z,10.27
2022-11-29T05:40:20.605Z,9.93
2022-11-29T05:43:14.954Z,10.32
2022-11-29T05:45:52.440Z,9.68
2022-11-29T05:48:32.865Z,9.23
2022-11-29T05:51:11.635Z,9.73
2022-11-29T05:54:00.171Z,9.45
2022-11-29T05:56:59.160Z,9.50
2022-11-29T05:59:30.170Z,9.00
2022-11-29T06:02:15.395Z,9.63
2022-11-29T06:04:57.247Z,8.80
2022-11-29T06:07:38.993Z,9.02
2022-11-29T06:10:06.770Z,8.80
2022-11-29T06:12:35.904Z,8.93
2022-11-29T06:15:13.686Z,8.40
2022-11-29T06:20:35.566Z,8.73
2022-11-29T06:23:20.999Z,9.00
2022-11-29T06:26:29.191Z,7.78
2022-11-29T06:29:34.216Z,8.38
2022-11-29T06:32:11.130Z,8.35
2022-11-29T06:34:48.998Z,8.10
2022-11-29T06:37:25.682Z,8.25
2022-11-29T06:39:53.709Z,8.63
2022-11-29T06:42:20.162Z,8.88
2022-11-29T06:44:47.477Z,8.25
2022-11-29T06:47:30.568Z,8.20
2022-11-29T06:50:35.906Z,8.65
2022-11-29T06:53:08.408Z,8.30
2022-11-29T06:55:56.893Z,8.40
2022-11-29T06:58:49.516Z,8.32
2022-11-29T07:01:43.942Z,7.83
2022-11-29T07:04:25.635Z,8.43
2022-11-29T07:06:52.488Z,7.20
2022-11-29T07:09:22.403Z,8.05
2022-11-29T07:11:49.125Z,8.18
2022-11-29T07:14:15.872Z,8.48
2022-11-29T07:16:57.038Z,8.05
2022-11-29T07:19:32.819Z,7.93
2022-11-29T07:22:09.886Z,7.85
2022-11-29T07:25:05.485Z,7.38
2022-11-29T07:27:53.624Z,7.85
2022-11-29T07:30:24.710Z,7.38
2022-11-29T07:33:00.732Z,7.47
2022-11-29T07:35:45.722Z,7.97
2022-11-29T07:38:21.992Z,7.65
2022-11-29T07:41:00.628Z,7.75
2022-11-29T07:43:35.848Z,8.23
2022-11-29T07:46:02.380Z,8.30
2022-11-29T07:48:28.841Z,8.57
2022-11-29T07:50:56.158Z,8.18
2022-11-29T07:53:23.618Z,7.90
2022-11-29T07:55:50.818Z,7.88
2022-11-29T07:58:18.305Z,7.47
2022-11-29T08:00:45.598Z,8.07
2022-11-29T08:03:12.449Z,7.88
2022-11-29T08:05:39.045Z,8.25
2022-11-29T08:08:06.315Z,7.60
2022-11-29T08:10:32.958Z,8.00
2022-11-29T08:12:59.413Z,7.47
2022-11-29T08:15:26.140Z,8.25
2022-11-29T08:17:53.204Z,6.90
2022-11-29T08:20:20.082Z,8.00
2022-11-29T08:22:57.390Z,7.63
2022-11-29T08:25:24.470Z,8.07
2022-11-29T08:27:51.725Z,7.88
2022-11-29T08:30:22.002Z,7.45
2022-11-29T08:32:52.039Z,7.57
2022-11-29T08:35:23.787Z,7.63
2022-11-29T08:37:50.644Z,8.20
2022-11-29T08:40:17.418Z,7.93
2022-11-29T08:42:44.036Z,8.55
2022-11-29T08:45:11.353Z,8.93
2022-11-29T08:47:38.976Z,9.93
2022-11-29T08:50:14.153Z,9.60
2022-11-29T08:53:05.313Z,10.30
2022-11-29T08:55:38.832Z,10.30
2022-11-29T08:58:07.863Z,10.30
2022-11-29T09:00:34.888Z,84.43
2022-11-29T09:03:21.669Z,63.50
2022-11-29T09:05:48.106Z,26.15
2022-11-29T09:08:14.635Z,36.90
2022-11-29T09:10:42.119Z,32.80
2022-11-29T09:13:09.995Z,34.17
2022-11-29T09:15:37.908Z,33.63
2022-11-29T09:18:05.731Z,34.42
2022-11-29T09:20:34.004Z,36.17
2022-11-29T09:23:00.903Z,35.00
2022-11-29T09:25:28.715Z,37.25
2022-11-29T09:27:58.363Z,35.80
2022-11-29T09:30:24.961Z,35.65
2022-11-29T09:32:51.501Z,38.67
2022-11-29T09:35:18.070Z,38.33
2022-11-29T09:37:44.632Z,38.03
2022-11-29T09:40:23.086Z,38.75
2022-11-29T09:42:58.133Z,39.75
2022-11-29T09:45:31.840Z,38.75
2022-11-29T09:48:16.706Z,40.65
2022-11-29T09:51:00.976Z,41.63
2022-11-29T09:53:46.054Z,39.50
2022-11-29T09:56:23.428Z,41.55
2022-11-29T09:58:57.756Z,41.15
2022-11-29T10:01:32.327Z,41.88
2022-11-29T10:04:04.661Z,41.75
2022-11-29T10:06:32.683Z,42.50
2022-11-29T10:09:15.544Z,42.88
2022-11-29T10:11:50.341Z,44.22
2022-11-29T10:14:22.536Z,45.03
2022-11-29T10:17:03.984Z,63.95
2022-11-29T10:19:41.100Z,59.22
2022-11-29T10:22:25.355Z,68.75
2022-11-29T10:24:54.319Z,70.53
2022-11-29T10:27:23.697Z,75.50
2022-11-29T10:29:53.395Z,72.97
2022-11-29T10:32:23.170Z,66.53
2022-11-29T10:34:49.800Z,61.17
2022-11-29T10:37:19.480Z,60.80
2022-11-29T10:40:04.091Z,143.90
2022-11-29T10:42:49.718Z,231.50
2022-11-29T10:45:50.561Z,253.35
2022-11-29T10:48:19.635Z,333.15
2022-11-29T10:50:48.797Z,404.45
2022-11-29T10:53:24.285Z,381.00
2022-11-29T10:56:09.263Z,267.40
2022-11-29T10:58:36.250Z,237.48
2022-11-29T11:01:09.417Z,221.70
2022-11-29T11:03:53.127Z,212.48
2022-11-29T11:06:41.183Z,204.25
2022-11-29T11:09:16.553Z,193.82
2022-11-29T11:11:51.410Z,184.07
2022-11-29T11:14:31.546Z,181.68
2022-11-29T11:17:26.204Z,179.18
2022-11-29T11:20:05.856Z,168.60
2022-11-29T11:22:33.675Z,199.35
2022-11-29T11:25:25.774Z,323.23
2022-11-29T11:27:52.390Z,294.35
2022-11-29T11:30:28.531Z,404.92
2022-11-29T11:33:21.369Z,404.10
2022-11-29T11:36:14.356Z,410.80
2022-11-29T11:39:11.992Z,514.40
2022-11-29T11:42:01.069Z,520.38
2022-11-29T11:44:50.408Z,455.10
2022-11-29T11:47:20.893Z,487.58
2022-11-29T11:49:54.059Z,572.72
2022-11-29T11:52:24.847Z,555.22
2022-11-29T11:54:58.607Z,551.40
2022-11-29T11:57:26.385Z,520.92
2022-11-29T12:00:03.380Z,528.50
2022-11-29T12:02:38.926Z,578.80
2022-11-29T12:05:13.173Z,534.08
2022-11-29T12:10:39.767Z,472.73
2022-11-29T12:13:17.293Z,454.98
2022-11-29T12:15:47.224Z,446.45
2022-11-29T12:18:20.905Z,435.77
2022-11-29T12:21:06.214Z,413.52
2022-11-29T12:23:40.447Z,396.45
2022-11-29T12:26:55.365Z,390.63
2022-11-29T12:29:15.996Z,463.42
2022-11-29T12:31:54.969Z,431.10
2022-11-29T12:34:47.156Z,448.23
2022-11-29T12:37:30.233Z,458.38
2022-11-29T12:39:57.393Z,486.35
2022-11-29T12:42:40.449Z,489.63
2022-11-29T12:48:44.539Z,532.58
2022-11-29T12:51:29.743Z,545.72
2022-11-29T12:54:31.816Z,527.65
2022-11-29T12:57:14.792Z,593.65
2022-11-29T12:59:50.844Z,592.80
2022-11-29T13:02:48.605Z,595.90
2022-11-29T13:05:56.961Z,597.90
2022-11-29T13:08:36.490Z,580.92
2022-11-29T13:11:33.256Z,548.72
2022-11-29T13:14:42.192Z,531.85
2022-11-29T13:17:57.858Z,520.55
2022-11-29T13:20:51.968Z,558.10
2022-11-29T13:23:45.731Z,605.45
2022-11-29T13:26:26.112Z,602.60
2022-11-29T13:28:52.843Z,640.67
2022-11-29T13:31:22.521Z,642.20
2022-11-29T13:33:55.682Z,653.90
2022-11-29T13:36:29.488Z,614.33
2022-11-29T13:39:15.541Z,577.28
2022-11-29T13:41:51.856Z,567.33
2022-11-29T13:44:37.013Z,565.55
2022-11-29T13:47:14.699Z,553.05
2022-11-29T13:50:05.277Z,543.95
2022-11-29T13:52:38.117Z,539.78
2022-11-29T13:58:14.895Z,511.73
2022-11-29T14:00:47.780Z,507.85
2022-11-29T14:03:23.283Z,507.63
2022-11-29T14:05:52.522Z,486.10
2022-11-29T14:08:48.115Z,481.70
2022-11-29T14:11:31.633Z,473.73
2022-11-29T14:14:18.470Z,466.17
2022-11-29T14:16:52.714Z,447.95
2022-11-29T14:19:30.081Z,449.17
2022-11-29T14:22:01.718Z,442.63
2022-11-29T14:24:37.094Z,438.65
2022-11-29T14:27:06.660Z,432.05
2022-11-29T14:29:52.686Z,412.63
2022-11-29T14:32:49.261Z,413.02
2022-11-29T14:35:26.740Z,400.98
2022-11-29T14:38:10.998Z,396.17
2022-11-29T14:40:40.167Z,396.00
2022-11-29T14:43:30.558Z,384.20
2022-11-29T14:46:29.272Z,384.00
2022-11-29T14:48:56.125Z,369.77
2022-11-29T14:51:28.679Z,369.13
2022-11-29T14:54:19.532Z,361.95
2022-11-29T14:56:47.318Z,360.85
2022-11-29T14:59:45.522Z,355.13
2022-11-29T15:02:32.826Z,353.25
2022-11-29T15:05:18.599Z,350.13
2022-11-29T15:07:51.422Z,340.23
2022-11-29T15:12:48.776Z,322.58
2022-11-29T15:15:44.797Z,330.98
2022-11-29T15:18:48.478Z,323.90
2022-11-29T15:21:57.943Z,315.00
2022-11-29T15:24:28.579Z,310.20
2022-11-29T15:26:56.586Z,300.60
2022-11-29T15:29:23.421Z,304.42
2022-11-29T15:31:53.698Z,295.45
2022-11-29T15:34:29.432Z,303.02
2022-11-29T15:36:55.866Z,296.27
2022-11-29T15:39:40.275Z,292.08
2022-11-29T15:42:11.347Z,286.60
2022-11-29T15:44:44.337Z,282.92
2022-11-29T15:47:24.665Z,275.25
2022-11-29T15:49:53.173Z,273.17
2022-11-29T15:52:28.725Z,275.92
2022-11-29T15:55:00.771Z,270.17
2022-11-29T15:57:35.609Z,264.93
2022-11-29T16:00:25.636Z,264.67
2022-11-29T16:02:59.855Z,255.57
2022-11-29T16:05:32.954Z,255.63
2022-11-29T16:08:20.527Z,248.75
2022-11-29T16:10:52.796Z,244.77
2022-11-29T16:13:31.626Z,247.98
2022-11-29T16:16:15.577Z,241.18
2022-11-29T16:18:45.070Z,229.15
2022-11-29T16:21:24.972Z,225.32
2022-11-29T16:23:51.610Z,226.63
2022-11-29T16:26:22.837Z,221.93
2022-11-29T16:28:51.798Z,219.88
2022-11-29T16:31:20.041Z,220.18
2022-11-29T16:33:49.105Z,219.73
2022-11-29T16:36:16.297Z,215.77
2022-11-29T16:38:49.285Z,209.75
2022-11-29T16:42:01.164Z,204.23
2022-11-29T16:44:39.524Z,201.45
2022-11-29T16:47:17.878Z,198.77
2022-11-29T16:49:45.025Z,199.52
2022-11-29T16:52:32.741Z,192.30
2022-11-29T16:54:59.908Z,188.55
2022-11-29T16:57:28.702Z,186.35
2022-11-29T16:59:55.240Z,185.85
2022-11-29T17:02:21.753Z,178.57
2022-11-29T17:04:50.743Z,177.80
2022-11-29T17:07:26.491Z,174.43
2022-11-29T17:09:53.489Z,174.88
2022-11-29T17:12:19.979Z,167.50
2022-11-29T17:14:46.766Z,167.63
2022-11-29T17:17:18.818Z,163.68
2022-11-29T17:19:45.371Z,158.77
2022-11-29T17:22:12.495Z,161.77
2022-11-29T17:24:42.315Z,158.40
2022-11-29T17:27:12.961Z,155.05
2022-11-29T17:29:39.411Z,154.05
2022-11-29T17:32:05.920Z,153.40
2022-11-29T17:34:33.317Z,148.20
2022-11-29T17:36:59.765Z,150.38
2022-11-29T17:39:26.294Z,144.90
2022-11-29T17:41:56.022Z,144.13
2022-11-29T17:44:25.365Z,142.38
2022-11-29T17:46:54.077Z,141.23
2022-11-29T17:49:20.704Z,140.10
2022-11-29T17:51:52.161Z,136.93
2022-11-29T17:54:22.787Z,134.00
2022-11-29T17:56:49.557Z,132.15
2022-11-29T17:59:16.130Z,133.43
2022-11-29T18:01:42.648Z,131.13
2022-11-29T18:04:09.279Z,127.60
2022-11-29T18:06:38.617Z,128.27
2022-11-29T18:09:07.471Z,127.28
2022-11-29T18:11:46.969Z,127.93
2022-11-29T18:14:17.976Z,121.72
2022-11-29T18:16:47.220Z,121.15
2022-11-29T18:19:16.495Z,117.25
2022-11-29T18:21:43.680Z,119.75
2022-11-29T18:24:10.827Z,118.13
2022-11-29T18:26:38.018Z,115.47
2022-11-29T18:29:05.909Z,116.13
2022-11-29T18:31:35.494Z,112.00
2022-11-29T18:34:06.831Z,107.47
2022-11-29T18:36:36.722Z,107.72
2022-11-29T18:39:09.233Z,105.18
2022-11-29T18:41:36.364Z,106.78
2022-11-29T18:44:08.245Z,106.03
2022-11-29T18:46:37.295Z,105.07
2022-11-29T18:49:06.210Z,104.20
2022-11-29T18:51:34.153Z,98.38
2022-11-29T18:54:01.060Z,99.03
2022-11-29T18:56:29.821Z,99.57
2022-11-29T18:58:59.045Z,97.30
2022-11-29T19:01:28.120Z,95.97
2022-11-29T19:03:56.723Z,96.70
2022-11-29T19:06:26.566Z,96.65
2022-11-29T19:08:53.611Z,93.82
2022-11-29T19:11:22.401Z,90.75
2022-11-29T19:13:57.618Z,90.93
2022-11-29T19:16:25.446Z,89.15
2022-11-29T19:18:54.648Z,89.03
2022-11-29T19:21:22.631Z,85.05
2022-11-29T19:23:54.483Z,85.45
2022-11-29T19:26:22.419Z,84.10
2022-11-29T19:28:49.443Z,84.45
2022-11-29T19:31:18.451Z,82.95
2022-11-29T19:33:45.774Z,81.85
2022-11-29T19:36:16.999Z,79.60
2022-11-29T19:38:47.645Z,79.60
2022-11-29T19:41:23.197Z,81.30
2022-11-29T19:43:50.416Z,79.03
2022-11-29T19:46:39.986Z,75.82
2022-11-29T19:49:08.320Z,74.32
2022-11-29T19:51:35.698Z,76.20
2022-11-29T19:54:05.008Z,74.15
2022-11-29T19:56:32.634Z,72.80
2022-11-29T19:59:02.489Z,73.63
2022-11-29T20:01:37.889Z,71.22
2022-11-29T20:04:07.437Z,71.53
2022-11-29T20:06:33.928Z,72.28
2022-11-29T20:09:00.494Z,69.72
2022-11-29T20:11:26.974Z,68.47
2022-11-29T20:13:59.061Z,70.22
2022-11-29T20:16:27.215Z,67.80
2022-11-29T20:18:54.417Z,65.63
2022-11-29T20:21:26.214Z,66.57
2022-11-29T20:24:04.809Z,66.20
2022-11-29T20:26:33.369Z,62.20
2022-11-29T20:29:00.331Z,64.38
2022-11-29T20:31:26.830Z,62.22
2022-11-29T20:33:54.919Z,60.40
2022-11-29T20:36:49.274Z,61.05
2022-11-29T20:39:44.413Z,60.72
2022-11-29T20:42:31.256Z,57.63
2022-11-29T20:45:00.222Z,58.80
2022-11-29T20:47:32.605Z,56.22
2022-11-29T20:49:59.547Z,58.72
2022-11-29T20:52:50.636Z,56.92
2022-11-29T20:55:17.991Z,53.20
2022-11-29T20:57:44.625Z,55.25
2022-11-29T21:00:12.818Z,53.05
2022-11-29T21:02:39.542Z,54.10
2022-11-29T21:05:07.188Z,52.28
2022-11-29T21:07:34.017Z,51.45
2022-11-29T21:10:01.601Z,53.38
2022-11-29T21:12:29.778Z,51.72
2022-11-29T21:14:56.682Z,50.70
2022-11-29T21:17:25.602Z,50.30
2022-11-29T21:19:56.906Z,49.25
2022-11-29T21:22:36.077Z,49.35
2022-11-29T21:25:14.202Z,47.97
2022-11-29T21:27:41.036Z,48.22
2022-11-29T21:30:17.954Z,46.47
2022-11-29T21:32:44.797Z,45.90
2022-11-29T21:35:11.387Z,46.25
2022-11-29T21:37:38.100Z,44.47
2022-11-29T21:40:05.531Z,46.08
2022-11-29T21:42:31.975Z,45.38
2022-11-29T21:44:58.764Z,45.47
2022-11-29T21:47:27.627Z,44.28
2022-11-29T21:49:54.808Z,42.25
2022-11-29T21:52:22.944Z,42.88
2022-11-29T21:54:50.138Z,42.75
2022-11-29T21:57:16.778Z,41.70
2022-11-29T21:59:43.217Z,41.38
2022-11-29T22:02:09.822Z,41.63
2022-11-29T22:04:36.354Z,40.65
2022-11-29T22:07:02.844Z,41.63
2022-11-29T22:09:29.297Z,39.60
2022-11-29T22:11:55.737Z,42.17
2022-11-29T22:14:22.277Z,38.92
2022-11-29T22:16:59.789Z,39.05
2022-11-29T22:19:28.761Z,38.67
2022-11-29T22:21:57.775Z,39.03
2022-11-29T22:24:27.729Z,38.20
2022-11-29T22:26:54.396Z,37.97
2022-11-29T22:29:21.597Z,36.53
2022-11-29T22:31:50.377Z,35.83
2022-11-29T22:34:16.960Z,35.17
2022-11-29T22:36:43.394Z,36.58
2022-11-29T22:39:10.032Z,36.08
2022-11-29T22:41:37.949Z,33.63
2022-11-29T22:44:05.019Z,34.97
2022-11-29T22:46:32.508Z,34.53
2022-11-29T22:49:00.562Z,34.30
2022-11-29T22:51:37.901Z,34.22
2022-11-29T22:54:06.905Z,34.38
2022-11-29T22:56:36.234Z,33.13
2022-11-29T22:59:03.292Z,32.92
2022-11-29T23:01:31.614Z,32.13
2022-11-29T23:04:00.193Z,32.50
2022-11-29T23:06:28.738Z,32.20
2022-11-29T23:08:58.129Z,30.98
2022-11-29T23:11:27.109Z,31.15
2022-11-29T23:13:54.062Z,31.67
2022-11-29T23:16:23.159Z,31.17
2022-11-29T23:18:50.241Z,31.05
2022-11-29T23:21:25.530Z,30.80
2022-11-29T23:23:56.352Z,29.92
2022-11-29T23:26:36.475Z,29.77
2022-11-29T23:29:04.464Z,29.80
2022-11-29T23:31:31.606Z,29.23
2022-11-29T23:33:58.178Z,30.27
2022-11-29T23:36:24.749Z,29.00
2022-11-29T23:38:51.389Z,27.23
2022-11-29T23:41:18.307Z,28.33
2022-11-29T23:43:44.753Z,28.10
2022-11-29T23:46:20.888Z,27.52
2022-11-29T23:48:47.491Z,28.15
2022-11-29T23:51:14.795Z,28.52
2022-11-29T23:53:41.820Z,27.30
2022-11-29T23:56:12.873Z,27.30
2022-11-29T23:58:39.548Z,27.17
